sensor_id;sensor_type;location;lat;lon;timestamp;P1;durP1;ratioP1;P2;durP2;ratioP2
2480;SDS011;57396;48.742;9.128;2023-08-24T00:00:44;9.80;;;5.80;;
2480;SDS011;57396;48.742;9.128;2023-08-24T00:03:10;7.80;;;5.57;;
2480;SDS011;57396;48.742;9.128;2023-08-24T00:05:36;14.33;;;5.70;;
2480;SDS011;57396;48.742;9.128;2023-08-24T00:08:03;6.57;;;5.70;;
2480;SDS011;57396;48.742;9.128;2023-08-24T00:10:29;5.50;;;5.00;;
2480;SDS011;57396;48.742;9.128;2023-08-24T00:12:55;13.03;;;5.47;;
2480;SDS011;57396;48.742;9.128;2023-08-24T00:15:20;6.50;;;5.53;;
2480;SDS011;57396;48.742;9.128;2023-08-24T00:17:46;8.17;;;5.80;;
2480;SDS011;57396;48.742;9.128;2023-08-24T00:20:11;7.00;;;6.27;;
2480;SDS011;57396;48.742;9.128;2023-08-24T00:22:37;12.10;;;5.63;;
2480;SDS011;57396;48.742;9.128;2023-08-24T00:25:03;5.90;;;5.13;;
2480;SDS011;57396;48.742;9.128;2023-08-24T00:27:30;8.77;;;6.23;;
2480;SDS011;57396;48.742;9.128;2023-08-24T00:29:55;8.83;;;5.60;;
2480;SDS011;57396;48.742;9.128;2023-08-24T00:32:22;8.90;;;6.47;;
2480;SDS011;57396;48.742;9.128;2023-08-24T00:34:48;9.17;;;5.87;;
2480;SDS011;57396;48.742;9.128;2023-08-24T00:37:13;9.43;;;6.00;;
2480;SDS011;57396;48.742;9.128;2023-08-24T00:39:39;6.03;;;5.40;;
2480;SDS011;57396;48.742;9.128;2023-08-24T00:42:04;7.70;;;5.70;;
2480;SDS011;57396;48.742;9.128;2023-08-24T00:44:31;6.13;;;5.47;;
2480;SDS011;57396;48.742;9.128;2023-08-24T00:46:56;5.90;;;5.30;;
2480;SDS011;57396;48.742;9.128;2023-08-24T00:49:23;9.57;;;6.20;;
2480;SDS011;57396;48.742;9.128;2023-08-24T00:51:48;6.77;;;5.80;;
2480;SDS011;57396;48.742;9.128;2023-08-24T00:54:14;6.33;;;5.40;;
2480;SDS011;57396;48.742;9.128;2023-08-24T00:56:40;6.60;;;5.90;;
2480;SDS011;57396;48.742;9.128;2023-08-24T00:59:06;7.73;;;5.97;;
2480;SDS011;57396;48.742;9.128;2023-08-24T01:01:31;6.40;;;5.80;;
2480;SDS011;57396;48.742;9.128;2023-08-24T01:03:57;10.70;;;6.30;;
2480;SDS011;57396;48.742;9.128;2023-08-24T01:06:22;7.30;;;5.73;;
2480;SDS011;57396;48.742;9.128;2023-08-24T01:08:47;8.87;;;5.70;;
2480;SDS011;57396;48.742;9.128;2023-08-24T01:17:09;7.37;;;5.53;;
2480;SDS011;57396;48.742;9.128;2023-08-24T01:19:39;6.40;;;5.30;;
2480;SDS011;57396;48.742;9.128;2023-08-24T01:24:51;6.03;;;5.40;;
2480;SDS011;57396;48.742;9.128;2023-08-24T01:27:20;6.03;;;5.53;;
2480;SDS011;57396;48.742;9.128;2023-08-24T01:29:46;6.50;;;5.90;;
2480;SDS011;57396;48.742;9.128;2023-08-24T01:32:13;6.73;;;5.73;;
2480;SDS011;57396;48.742;9.128;2023-08-24T01:34:39;6.23;;;5.63;;
2480;SDS011;57396;48.742;9.128;2023-08-24T01:37:05;8.73;;;5.73;;
2480;SDS011;57396;48.742;9.128;2023-08-24T01:39:37;8.73;;;5.53;;
2480;SDS011;57396;48.742;9.128;2023-08-24T01:42:06;6.10;;;5.60;;
2480;SDS011;57396;48.742;9.128;2023-08-24T01:44:34;7.23;;;5.80;;
2480;SDS011;57396;48.742;9.128;2023-08-24T01:47:01;6.60;;;6.00;;
2480;SDS011;57396;48.742;9.128;2023-08-24T01:49:28;7.73;;;6.03;;
2480;SDS011;57396;48.742;9.128;2023-08-24T01:51:54;7.80;;;5.83;;
2480;SDS011;57396;48.742;9.128;2023-08-24T01:54:20;6.50;;;5.63;;
2480;SDS011;57396;48.742;9.128;2023-08-24T01:56:45;7.67;;;5.87;;
2480;SDS011;57396;48.742;9.128;2023-08-24T01:59:11;5.87;;;5.33;;
2480;SDS011;57396;48.742;9.128;2023-08-24T02:01:36;6.20;;;5.60;;
2480;SDS011;57396;48.742;9.128;2023-08-24T02:04:02;8.03;;;6.20;;
2480;SDS011;57396;48.742;9.128;2023-08-24T02:06:27;7.10;;;6.40;;
2480;SDS011;57396;48.742;9.128;2023-08-24T02:08:53;17.00;;;6.23;;
2480;SDS011;57396;48.742;9.128;2023-08-24T02:11:18;6.80;;;6.07;;
2480;SDS011;57396;48.742;9.128;2023-08-24T02:13:44;7.10;;;6.13;;
2480;SDS011;57396;48.742;9.128;2023-08-24T02:16:09;8.00;;;5.53;;
2480;SDS011;57396;48.742;9.128;2023-08-24T02:18:35;7.40;;;6.37;;
2480;SDS011;57396;48.742;9.128;2023-08-24T02:21:01;5.80;;;5.30;;
2480;SDS011;57396;48.742;9.128;2023-08-24T02:23:32;10.23;;;6.13;;
2480;SDS011;57396;48.742;9.128;2023-08-24T02:25:57;8.70;;;6.27;;
2480;SDS011;57396;48.742;9.128;2023-08-24T02:28:23;7.83;;;5.83;;
2480;SDS011;57396;48.742;9.128;2023-08-24T02:30:48;10.47;;;6.50;;
2480;SDS011;57396;48.742;9.128;2023-08-24T02:33:14;10.67;;;6.90;;
2480;SDS011;57396;48.742;9.128;2023-08-24T02:35:39;9.37;;;5.63;;
2480;SDS011;57396;48.742;9.128;2023-08-24T02:38:04;9.10;;;6.07;;
2480;SDS011;57396;48.742;9.128;2023-08-24T02:40:30;8.60;;;5.90;;
2480;SDS011;57396;48.742;9.128;2023-08-24T02:42:55;7.00;;;6.40;;
2480;SDS011;57396;48.742;9.128;2023-08-24T02:45:21;6.83;;;6.13;;
2480;SDS011;57396;48.742;9.128;2023-08-24T02:47:46;7.07;;;6.37;;
2480;SDS011;57396;48.742;9.128;2023-08-24T02:50:12;6.70;;;6.10;;
2480;SDS011;57396;48.742;9.128;2023-08-24T02:52:37;7.10;;;6.40;;
2480;SDS011;57396;48.742;9.128;2023-08-24T02:55:02;12.43;;;6.40;;
2480;SDS011;57396;48.742;9.128;2023-08-24T02:57:28;8.60;;;6.67;;
2480;SDS011;57396;48.742;9.128;2023-08-24T02:59:54;8.60;;;6.87;;
2480;SDS011;57396;48.742;9.128;2023-08-24T03:02:19;6.57;;;5.97;;
2480;SDS011;57396;48.742;9.128;2023-08-24T03:04:45;11.40;;;6.60;;
2480;SDS011;57396;48.742;9.128;2023-08-24T03:07:10;12.20;;;6.47;;
2480;SDS011;57396;48.742;9.128;2023-08-24T03:09:36;8.10;;;6.40;;
2480;SDS011;57396;48.742;9.128;2023-08-24T03:12:01;7.77;;;6.50;;
2480;SDS011;57396;48.742;9.128;2023-08-24T03:14:27;12.20;;;6.40;;
2480;SDS011;57396;48.742;9.128;2023-08-24T03:16:52;7.90;;;7.10;;
2480;SDS011;57396;48.742;9.128;2023-08-24T03:19:18;8.23;;;6.60;;
2480;SDS011;57396;48.742;9.128;2023-08-24T03:21:43;7.20;;;6.50;;
2480;SDS011;57396;48.742;9.128;2023-08-24T03:24:09;7.03;;;6.30;;
2480;SDS011;57396;48.742;9.128;2023-08-24T03:26:34;8.57;;;7.00;;
2480;SDS011;57396;48.742;9.128;2023-08-24T03:29:00;7.60;;;6.80;;
2480;SDS011;57396;48.742;9.128;2023-08-24T03:31:25;7.30;;;6.33;;
2480;SDS011;57396;48.742;9.128;2023-08-24T03:33:51;7.67;;;6.97;;
2480;SDS011;57396;48.742;9.128;2023-08-24T03:36:17;7.77;;;7.00;;
2480;SDS011;57396;48.742;9.128;2023-08-24T03:38:42;12.60;;;6.60;;
2480;SDS011;57396;48.742;9.128;2023-08-24T03:41:07;7.37;;;6.67;;
2480;SDS011;57396;48.742;9.128;2023-08-24T03:43:33;10.70;;;6.67;;
2480;SDS011;57396;48.742;9.128;2023-08-24T03:46:00;11.83;;;7.13;;
2480;SDS011;57396;48.742;9.128;2023-08-24T03:48:26;7.17;;;6.47;;
2480;SDS011;57396;48.742;9.128;2023-08-24T03:50:55;7.87;;;6.20;;
2480;SDS011;57396;48.742;9.128;2023-08-24T03:53:21;10.17;;;6.60;;
2480;SDS011;57396;48.742;9.128;2023-08-24T03:55:47;7.20;;;5.90;;
2480;SDS011;57396;48.742;9.128;2023-08-24T03:58:14;12.00;;;6.83;;
2480;SDS011;57396;48.742;9.128;2023-08-24T04:00:39;7.60;;;6.83;;
2480;SDS011;57396;48.742;9.128;2023-08-24T04:03:05;8.87;;;6.70;;
2480;SDS011;57396;48.742;9.128;2023-08-24T04:05:31;8.97;;;7.43;;
2480;SDS011;57396;48.742;9.128;2023-08-24T04:07:56;8.63;;;7.63;;
2480;SDS011;57396;48.742;9.128;2023-08-24T04:10:22;8.33;;;6.67;;
2480;SDS011;57396;48.742;9.128;2023-08-24T04:12:47;9.73;;;6.50;;
2480;SDS011;57396;48.742;9.128;2023-08-24T04:15:12;7.73;;;6.13;;
2480;SDS011;57396;48.742;9.128;2023-08-24T04:17:38;9.83;;;6.17;;
2480;SDS011;57396;48.742;9.128;2023-08-24T04:20:04;6.97;;;6.37;;
2480;SDS011;57396;48.742;9.128;2023-08-24T04:22:31;7.53;;;6.83;;
2480;SDS011;57396;48.742;9.128;2023-08-24T04:24:57;8.93;;;7.07;;
2480;SDS011;57396;48.742;9.128;2023-08-24T04:27:22;7.33;;;6.50;;
2480;SDS011;57396;48.742;9.128;2023-08-24T04:29:48;11.33;;;6.93;;
2480;SDS011;57396;48.742;9.128;2023-08-24T04:32:14;7.97;;;6.37;;
2480;SDS011;57396;48.742;9.128;2023-08-24T04:34:39;12.53;;;6.33;;
2480;SDS011;57396;48.742;9.128;2023-08-24T04:37:05;8.97;;;6.60;;
2480;SDS011;57396;48.742;9.128;2023-08-24T04:39:31;7.67;;;6.27;;
2480;SDS011;57396;48.742;9.128;2023-08-24T04:41:56;8.00;;;6.47;;
2480;SDS011;57396;48.742;9.128;2023-08-24T04:44:22;6.67;;;6.03;;
2480;SDS011;57396;48.742;9.128;2023-08-24T04:46:48;7.97;;;7.17;;
2480;SDS011;57396;48.742;9.128;2023-08-24T04:49:14;11.40;;;6.80;;
2480;SDS011;57396;48.742;9.128;2023-08-24T04:51:39;10.03;;;6.90;;
2480;SDS011;57396;48.742;9.128;2023-08-24T04:54:05;9.33;;;6.70;;
2480;SDS011;57396;48.742;9.128;2023-08-24T04:56:30;8.63;;;6.47;;
2480;SDS011;57396;48.742;9.128;2023-08-24T04:58:56;10.50;;;7.00;;
2480;SDS011;57396;48.742;9.128;2023-08-24T05:01:25;9.73;;;6.70;;
2480;SDS011;57396;48.742;9.128;2023-08-24T05:03:51;11.53;;;6.83;;
2480;SDS011;57396;48.742;9.128;2023-08-24T05:06:18;10.33;;;8.03;;
2480;SDS011;57396;48.742;9.128;2023-08-24T05:08:44;12.90;;;7.13;;
2480;SDS011;57396;48.742;9.128;2023-08-24T05:11:12;9.30;;;7.10;;
2480;SDS011;57396;48.742;9.128;2023-08-24T05:13:45;7.90;;;6.70;;
2480;SDS011;57396;48.742;9.128;2023-08-24T05:16:11;7.77;;;6.97;;
2480;SDS011;57396;48.742;9.128;2023-08-24T05:18:37;11.43;;;7.70;;
2480;SDS011;57396;48.742;9.128;2023-08-24T05:21:03;8.70;;;7.20;;
2480;SDS011;57396;48.742;9.128;2023-08-24T05:23:29;9.13;;;7.20;;
2480;SDS011;57396;48.742;9.128;2023-08-24T05:25:56;11.57;;;7.60;;
2480;SDS011;57396;48.742;9.128;2023-08-24T05:28:22;7.50;;;6.30;;
2480;SDS011;57396;48.742;9.128;2023-08-24T05:30:47;11.23;;;6.73;;
2480;SDS011;57396;48.742;9.128;2023-08-24T05:33:13;13.93;;;6.40;;
2480;SDS011;57396;48.742;9.128;2023-08-24T05:35:38;7.73;;;7.00;;
2480;SDS011;57396;48.742;9.128;2023-08-24T05:38:04;7.30;;;6.60;;
2480;SDS011;57396;48.742;9.128;2023-08-24T05:40:29;7.53;;;6.53;;
2480;SDS011;57396;48.742;9.128;2023-08-24T05:42:55;7.47;;;6.13;;
2480;SDS011;57396;48.742;9.128;2023-08-24T05:45:20;8.53;;;6.80;;
2480;SDS011;57396;48.742;9.128;2023-08-24T05:47:47;7.00;;;5.97;;
2480;SDS011;57396;48.742;9.128;2023-08-24T05:50:12;12.63;;;6.50;;
2480;SDS011;57396;48.742;9.128;2023-08-24T05:52:38;7.40;;;6.23;;
2480;SDS011;57396;48.742;9.128;2023-08-24T05:55:03;8.03;;;6.30;;
2480;SDS011;57396;48.742;9.128;2023-08-24T05:57:29;6.83;;;6.17;;
2480;SDS011;57396;48.742;9.128;2023-08-24T05:59:54;7.70;;;5.70;;
2480;SDS011;57396;48.742;9.128;2023-08-24T06:02:19;6.33;;;5.70;;
2480;SDS011;57396;48.742;9.128;2023-08-24T06:04:45;8.60;;;5.73;;
2480;SDS011;57396;48.742;9.128;2023-08-24T06:07:11;9.80;;;5.87;;
2480;SDS011;57396;48.742;9.128;2023-08-24T06:09:36;10.30;;;7.10;;
2480;SDS011;57396;48.742;9.128;2023-08-24T06:12:02;8.57;;;6.00;;
2480;SDS011;57396;48.742;9.128;2023-08-24T06:14:27;7.70;;;6.03;;
2480;SDS011;57396;48.742;9.128;2023-08-24T06:16:52;12.43;;;6.10;;
2480;SDS011;57396;48.742;9.128;2023-08-24T06:19:18;6.70;;;5.80;;
2480;SDS011;57396;48.742;9.128;2023-08-24T06:21:44;8.97;;;6.10;;
2480;SDS011;57396;48.742;9.128;2023-08-24T06:24:09;9.80;;;6.40;;
2480;SDS011;57396;48.742;9.128;2023-08-24T06:26:35;10.13;;;5.93;;
2480;SDS011;57396;48.742;9.128;2023-08-24T06:29:00;10.23;;;5.53;;
2480;SDS011;57396;48.742;9.128;2023-08-24T06:31:26;7.10;;;5.47;;
2480;SDS011;57396;48.742;9.128;2023-08-24T06:33:51;9.13;;;5.50;;
2480;SDS011;57396;48.742;9.128;2023-08-24T06:36:18;11.47;;;5.57;;
2480;SDS011;57396;48.742;9.128;2023-08-24T06:38:43;12.47;;;5.80;;
2480;SDS011;57396;48.742;9.128;2023-08-24T06:41:09;6.03;;;5.50;;
2480;SDS011;57396;48.742;9.128;2023-08-24T06:43:37;14.47;;;5.97;;
2480;SDS011;57396;48.742;9.128;2023-08-24T06:46:04;11.40;;;6.00;;
2480;SDS011;57396;48.742;9.128;2023-08-24T06:48:33;6.90;;;5.30;;
2480;SDS011;57396;48.742;9.128;2023-08-24T06:50:59;8.87;;;5.20;;
2480;SDS011;57396;48.742;9.128;2023-08-24T06:53:25;10.03;;;5.80;;
2480;SDS011;57396;48.742;9.128;2023-08-24T06:55:57;11.73;;;5.63;;
2480;SDS011;57396;48.742;9.128;2023-08-24T06:58:23;6.80;;;5.27;;
2480;SDS011;57396;48.742;9.128;2023-08-24T07:00:49;9.10;;;5.60;;
2480;SDS011;57396;48.742;9.128;2023-08-24T07:03:17;8.30;;;5.50;;
2480;SDS011;57396;48.742;9.128;2023-08-24T07:05:43;7.13;;;5.63;;
2480;SDS011;57396;48.742;9.128;2023-08-24T07:08:09;7.30;;;5.47;;
2480;SDS011;57396;48.742;9.128;2023-08-24T07:10:35;17.53;;;5.20;;
2480;SDS011;57396;48.742;9.128;2023-08-24T07:13:00;18.03;;;5.90;;
2480;SDS011;57396;48.742;9.128;2023-08-24T07:15:26;7.90;;;5.30;;
2480;SDS011;57396;48.742;9.128;2023-08-24T07:17:51;10.10;;;5.97;;
2480;SDS011;57396;48.742;9.128;2023-08-24T07:20:17;9.80;;;5.50;;
2480;SDS011;57396;48.742;9.128;2023-08-24T07:22:42;7.50;;;5.30;;
2480;SDS011;57396;48.742;9.128;2023-08-24T07:25:08;17.90;;;6.17;;
2480;SDS011;57396;48.742;9.128;2023-08-24T07:27:35;11.40;;;5.40;;
2480;SDS011;57396;48.742;9.128;2023-08-24T07:30:01;8.77;;;5.40;;
2480;SDS011;57396;48.742;9.128;2023-08-24T07:32:31;9.27;;;4.53;;
2480;SDS011;57396;48.742;9.128;2023-08-24T07:34:56;7.10;;;5.53;;
2480;SDS011;57396;48.742;9.128;2023-08-24T07:37:23;8.90;;;4.83;;
2480;SDS011;57396;48.742;9.128;2023-08-24T07:39:49;7.37;;;4.50;;
2480;SDS011;57396;48.742;9.128;2023-08-24T07:42:14;7.63;;;4.90;;
2480;SDS011;57396;48.742;9.128;2023-08-24T07:44:39;7.50;;;4.40;;
2480;SDS011;57396;48.742;9.128;2023-08-24T07:47:05;7.73;;;5.40;;
2480;SDS011;57396;48.742;9.128;2023-08-24T07:49:30;7.40;;;5.20;;
2480;SDS011;57396;48.742;9.128;2023-08-24T07:51:56;12.77;;;4.90;;
2480;SDS011;57396;48.742;9.128;2023-08-24T07:54:23;15.80;;;5.50;;
2480;SDS011;57396;48.742;9.128;2023-08-24T07:56:49;7.83;;;5.63;;
2480;SDS011;57396;48.742;9.128;2023-08-24T07:59:14;9.63;;;5.40;;
2480;SDS011;57396;48.742;9.128;2023-08-24T08:01:40;11.47;;;6.03;;
2480;SDS011;57396;48.742;9.128;2023-08-24T08:04:05;7.43;;;5.17;;
2480;SDS011;57396;48.742;9.128;2023-08-24T08:06:31;8.73;;;5.67;;
2480;SDS011;57396;48.742;9.128;2023-08-24T08:08:57;7.73;;;5.50;;
2480;SDS011;57396;48.742;9.128;2023-08-24T08:11:23;10.13;;;5.53;;
2480;SDS011;57396;48.742;9.128;2023-08-24T08:13:48;15.93;;;5.63;;
2480;SDS011;57396;48.742;9.128;2023-08-24T08:16:14;12.37;;;6.57;;
2480;SDS011;57396;48.742;9.128;2023-08-24T08:18:39;12.00;;;6.17;;
2480;SDS011;57396;48.742;9.128;2023-08-24T08:21:15;8.93;;;5.60;;
2480;SDS011;57396;48.742;9.128;2023-08-24T08:23:43;7.10;;;5.50;;
2480;SDS011;57396;48.742;9.128;2023-08-24T08:26:10;7.80;;;6.30;;
2480;SDS011;57396;48.742;9.128;2023-08-24T08:28:36;10.67;;;5.47;;
2480;SDS011;57396;48.742;9.128;2023-08-24T08:31:01;11.93;;;5.50;;
2480;SDS011;57396;48.742;9.128;2023-08-24T08:33:28;9.93;;;5.63;;
2480;SDS011;57396;48.742;9.128;2023-08-24T08:35:53;11.90;;;5.60;;
2480;SDS011;57396;48.742;9.128;2023-08-24T08:38:19;9.93;;;5.10;;
2480;SDS011;57396;48.742;9.128;2023-08-24T08:40:47;8.73;;;4.83;;
2480;SDS011;57396;48.742;9.128;2023-08-24T08:43:14;7.70;;;4.70;;
2480;SDS011;57396;48.742;9.128;2023-08-24T08:45:40;11.47;;;5.27;;
2480;SDS011;57396;48.742;9.128;2023-08-24T08:48:06;9.60;;;5.23;;
2480;SDS011;57396;48.742;9.128;2023-08-24T08:50:32;9.63;;;5.43;;
2480;SDS011;57396;48.742;9.128;2023-08-24T08:52:58;11.30;;;4.70;;
2480;SDS011;57396;48.742;9.128;2023-08-24T08:55:23;9.20;;;5.23;;
2480;SDS011;57396;48.742;9.128;2023-08-24T08:57:49;9.70;;;4.13;;
2480;SDS011;57396;48.742;9.128;2023-08-24T09:00:16;13.73;;;4.43;;
2480;SDS011;57396;48.742;9.128;2023-08-24T09:02:42;11.03;;;4.23;;
2480;SDS011;57396;48.742;9.128;2023-08-24T09:05:08;8.17;;;5.03;;
2480;SDS011;57396;48.742;9.128;2023-08-24T09:07:34;19.40;;;5.07;;
2480;SDS011;57396;48.742;9.128;2023-08-24T09:10:01;6.53;;;4.20;;
2480;SDS011;57396;48.742;9.128;2023-08-24T09:12:27;12.47;;;4.20;;
2480;SDS011;57396;48.742;9.128;2023-08-24T09:14:57;7.27;;;4.50;;
2480;SDS011;57396;48.742;9.128;2023-08-24T09:17:22;15.03;;;5.07;;
2480;SDS011;57396;48.742;9.128;2023-08-24T09:19:49;7.93;;;4.37;;
2480;SDS011;57396;48.742;9.128;2023-08-24T09:22:15;8.10;;;4.70;;
2480;SDS011;57396;48.742;9.128;2023-08-24T09:24:40;11.33;;;4.90;;
2480;SDS011;57396;48.742;9.128;2023-08-24T09:27:16;11.57;;;4.80;;
2480;SDS011;57396;48.742;9.128;2023-08-24T09:29:42;5.97;;;4.43;;
2480;SDS011;57396;48.742;9.128;2023-08-24T09:32:08;5.37;;;4.10;;
2480;SDS011;57396;48.742;9.128;2023-08-24T09:34:35;4.97;;;4.30;;
2480;SDS011;57396;48.742;9.128;2023-08-24T09:37:01;10.10;;;4.17;;
2480;SDS011;57396;48.742;9.128;2023-08-24T09:39:29;5.80;;;4.47;;
2480;SDS011;57396;48.742;9.128;2023-08-24T09:41:54;8.33;;;3.97;;
2480;SDS011;57396;48.742;9.128;2023-08-24T09:44:25;8.50;;;4.30;;
2480;SDS011;57396;48.742;9.128;2023-08-24T09:46:52;9.53;;;4.17;;
2480;SDS011;57396;48.742;9.128;2023-08-24T09:49:17;9.63;;;3.93;;
2480;SDS011;57396;48.742;9.128;2023-08-24T09:51:44;10.30;;;4.03;;
2480;SDS011;57396;48.742;9.128;2023-08-24T09:54:10;9.30;;;4.13;;
2480;SDS011;57396;48.742;9.128;2023-08-24T09:56:36;5.60;;;4.03;;
2480;SDS011;57396;48.742;9.128;2023-08-24T09:59:05;8.53;;;3.70;;
2480;SDS011;57396;48.742;9.128;2023-08-24T10:01:35;8.10;;;4.70;;
2480;SDS011;57396;48.742;9.128;2023-08-24T10:04:01;11.33;;;4.93;;
2480;SDS011;57396;48.742;9.128;2023-08-24T10:06:30;5.80;;;3.87;;
2480;SDS011;57396;48.742;9.128;2023-08-24T10:08:57;6.43;;;4.20;;
2480;SDS011;57396;48.742;9.128;2023-08-24T10:11:25;5.57;;;3.83;;
2480;SDS011;57396;48.742;9.128;2023-08-24T10:13:53;4.77;;;4.13;;
2480;SDS011;57396;48.742;9.128;2023-08-24T10:16:24;6.37;;;3.93;;
2480;SDS011;57396;48.742;9.128;2023-08-24T10:18:50;10.70;;;4.13;;
2480;SDS011;57396;48.742;9.128;2023-08-24T10:21:17;5.37;;;3.70;;
2480;SDS011;57396;48.742;9.128;2023-08-24T10:23:43;7.77;;;3.77;;
2480;SDS011;57396;48.742;9.128;2023-08-24T10:26:08;10.10;;;3.87;;
2480;SDS011;57396;48.742;9.128;2023-08-24T10:28:36;9.27;;;4.00;;
2480;SDS011;57396;48.742;9.128;2023-08-24T10:31:01;10.37;;;4.00;;
2480;SDS011;57396;48.742;9.128;2023-08-24T10:33:27;7.80;;;3.73;;
2480;SDS011;57396;48.742;9.128;2023-08-24T10:35:54;13.93;;;4.33;;
2480;SDS011;57396;48.742;9.128;2023-08-24T10:38:29;6.73;;;4.20;;
2480;SDS011;57396;48.742;9.128;2023-08-24T10:41:03;4.50;;;4.10;;
2480;SDS011;57396;48.742;9.128;2023-08-24T10:43:34;9.40;;;4.53;;
2480;SDS011;57396;48.742;9.128;2023-08-24T10:46:02;5.30;;;4.13;;
2480;SDS011;57396;48.742;9.128;2023-08-24T10:49:18;6.87;;;4.63;;
2480;SDS011;57396;48.742;9.128;2023-08-24T10:54:02;6.27;;;4.00;;
2480;SDS011;57396;48.742;9.128;2023-08-24T10:56:32;7.03;;;4.10;;
2480;SDS011;57396;48.742;9.128;2023-08-24T10:59:10;5.93;;;4.40;;
2480;SDS011;57396;48.742;9.128;2023-08-24T11:01:41;5.60;;;4.03;;
2480;SDS011;57396;48.742;9.128;2023-08-24T11:04:07;6.93;;;4.50;;
2480;SDS011;57396;48.742;9.128;2023-08-24T11:06:33;8.13;;;4.57;;
2480;SDS011;57396;48.742;9.128;2023-08-24T11:09:06;6.57;;;4.10;;
2480;SDS011;57396;48.742;9.128;2023-08-24T11:11:39;8.37;;;4.50;;
2480;SDS011;57396;48.742;9.128;2023-08-24T11:14:14;7.90;;;4.10;;
2480;SDS011;57396;48.742;9.128;2023-08-24T11:16:55;9.97;;;4.70;;
2480;SDS011;57396;48.742;9.128;2023-08-24T11:19:22;6.80;;;4.40;;
2480;SDS011;57396;48.742;9.128;2023-08-24T11:21:48;7.90;;;4.70;;
2480;SDS011;57396;48.742;9.128;2023-08-24T11:24:13;7.20;;;5.23;;
2480;SDS011;57396;48.742;9.128;2023-08-24T11:26:41;6.87;;;4.90;;
2480;SDS011;57396;48.742;9.128;2023-08-24T11:29:07;5.57;;;5.00;;
2480;SDS011;57396;48.742;9.128;2023-08-24T11:31:33;15.80;;;4.97;;
2480;SDS011;57396;48.742;9.128;2023-08-24T11:33:59;5.20;;;4.70;;
2480;SDS011;57396;48.742;9.128;2023-08-24T11:36:25;8.07;;;4.40;;
2480;SDS011;57396;48.742;9.128;2023-08-24T11:38:55;11.63;;;4.90;;
2480;SDS011;57396;48.742;9.128;2023-08-24T11:41:22;10.70;;;5.17;;
2480;SDS011;57396;48.742;9.128;2023-08-24T11:43:48;9.40;;;4.37;;
2480;SDS011;57396;48.742;9.128;2023-08-24T11:46:17;8.57;;;4.87;;
2480;SDS011;57396;48.742;9.128;2023-08-24T11:48:43;4.90;;;4.43;;
2480;SDS011;57396;48.742;9.128;2023-08-24T11:51:10;8.40;;;4.63;;
2480;SDS011;57396;48.742;9.128;2023-08-24T11:53:41;9.80;;;4.63;;
2480;SDS011;57396;48.742;9.128;2023-08-24T11:56:10;11.50;;;4.80;;
2480;SDS011;57396;48.742;9.128;2023-08-24T11:58:40;8.57;;;4.70;;
2480;SDS011;57396;48.742;9.128;2023-08-24T12:01:07;6.17;;;3.90;;
2480;SDS011;57396;48.742;9.128;2023-08-24T12:03:33;5.83;;;4.37;;
2480;SDS011;57396;48.742;9.128;2023-08-24T12:05:59;9.13;;;4.93;;
2480;SDS011;57396;48.742;9.128;2023-08-24T12:08:26;15.03;;;4.83;;
2480;SDS011;57396;48.742;9.128;2023-08-24T12:10:51;8.50;;;4.37;;
2480;SDS011;57396;48.742;9.128;2023-08-24T12:13:17;5.87;;;4.50;;
2480;SDS011;57396;48.742;9.128;2023-08-24T12:15:43;7.53;;;4.63;;
2480;SDS011;57396;48.742;9.128;2023-08-24T12:18:09;8.47;;;4.83;;
2480;SDS011;57396;48.742;9.128;2023-08-24T12:20:35;12.40;;;5.20;;
2480;SDS011;57396;48.742;9.128;2023-08-24T12:23:01;12.43;;;5.10;;
2480;SDS011;57396;48.742;9.128;2023-08-24T12:25:26;8.70;;;5.27;;
2480;SDS011;57396;48.742;9.128;2023-08-24T12:27:52;10.53;;;4.43;;
2480;SDS011;57396;48.742;9.128;2023-08-24T12:30:19;9.93;;;4.73;;
2480;SDS011;57396;48.742;9.128;2023-08-24T12:32:45;6.73;;;4.60;;
2480;SDS011;57396;48.742;9.128;2023-08-24T12:35:13;7.33;;;4.63;;
2480;SDS011;57396;48.742;9.128;2023-08-24T12:37:39;6.03;;;4.57;;
2480;SDS011;57396;48.742;9.128;2023-08-24T12:40:05;12.67;;;4.57;;
2480;SDS011;57396;48.742;9.128;2023-08-24T12:42:32;10.47;;;4.83;;
2480;SDS011;57396;48.742;9.128;2023-08-24T12:44:57;8.30;;;4.83;;
2480;SDS011;57396;48.742;9.128;2023-08-24T12:47:23;16.73;;;4.70;;
2480;SDS011;57396;48.742;9.128;2023-08-24T12:49:48;17.23;;;4.83;;
2480;SDS011;57396;48.742;9.128;2023-08-24T12:52:15;5.07;;;4.57;;
2480;SDS011;57396;48.742;9.128;2023-08-24T12:54:41;11.30;;;5.00;;
2480;SDS011;57396;48.742;9.128;2023-08-24T12:57:07;8.70;;;4.40;;
2480;SDS011;57396;48.742;9.128;2023-08-24T12:59:33;11.50;;;4.60;;
2480;SDS011;57396;48.742;9.128;2023-08-24T13:01:58;9.40;;;5.23;;
2480;SDS011;57396;48.742;9.128;2023-08-24T13:04:24;12.13;;;5.10;;
2480;SDS011;57396;48.742;9.128;2023-08-24T13:06:49;10.97;;;4.53;;
2480;SDS011;57396;48.742;9.128;2023-08-24T13:09:15;5.27;;;3.97;;
2480;SDS011;57396;48.742;9.128;2023-08-24T13:11:40;8.20;;;4.33;;
2480;SDS011;57396;48.742;9.128;2023-08-24T13:14:06;6.87;;;4.27;;
2480;SDS011;57396;48.742;9.128;2023-08-24T13:16:31;8.10;;;4.53;;
2480;SDS011;57396;48.742;9.128;2023-08-24T13:18:57;9.43;;;4.70;;
2480;SDS011;57396;48.742;9.128;2023-08-24T13:21:23;18.52;;;5.03;;
2480;SDS011;57396;48.742;9.128;2023-08-24T13:23:49;12.32;;;4.53;;
2480;SDS011;57396;48.742;9.128;2023-08-24T13:26:18;12.53;;;4.30;;
2480;SDS011;57396;48.742;9.128;2023-08-24T13:28:45;11.20;;;4.57;;
2480;SDS011;57396;48.742;9.128;2023-08-24T13:31:11;8.93;;;4.57;;
2480;SDS011;57396;48.742;9.128;2023-08-24T13:33:36;8.57;;;4.93;;
2480;SDS011;57396;48.742;9.128;2023-08-24T13:36:02;10.20;;;4.50;;
2480;SDS011;57396;48.742;9.128;2023-08-24T13:38:27;8.37;;;4.13;;
2480;SDS011;57396;48.742;9.128;2023-08-24T13:40:53;9.07;;;3.93;;
2480;SDS011;57396;48.742;9.128;2023-08-24T13:43:18;10.18;;;3.95;;
2480;SDS011;57396;48.742;9.128;2023-08-24T13:45:45;14.60;;;4.95;;
2480;SDS011;57396;48.742;9.128;2023-08-24T13:48:10;16.30;;;4.33;;
2480;SDS011;57396;48.742;9.128;2023-08-24T13:50:36;8.77;;;4.00;;
2480;SDS011;57396;48.742;9.128;2023-08-24T13:53:01;21.83;;;4.30;;
2480;SDS011;57396;48.742;9.128;2023-08-24T13:55:27;13.05;;;4.70;;
2480;SDS011;57396;48.742;9.128;2023-08-24T13:57:52;12.45;;;4.22;;
2480;SDS011;57396;48.742;9.128;2023-08-24T14:00:17;8.70;;;3.70;;
2480;SDS011;57396;48.742;9.128;2023-08-24T14:02:43;18.73;;;4.97;;
2480;SDS011;57396;48.742;9.128;2023-08-24T14:05:09;12.30;;;4.20;;
2480;SDS011;57396;48.742;9.128;2023-08-24T14:07:36;19.80;;;4.13;;
2480;SDS011;57396;48.742;9.128;2023-08-24T14:10:02;13.17;;;4.03;;
2480;SDS011;57396;48.742;9.128;2023-08-24T14:12:29;16.90;;;4.10;;
2480;SDS011;57396;48.742;9.128;2023-08-24T14:14:55;14.13;;;4.30;;
2480;SDS011;57396;48.742;9.128;2023-08-24T14:17:21;12.80;;;3.72;;
2480;SDS011;57396;48.742;9.128;2023-08-24T14:19:46;14.40;;;4.27;;
2480;SDS011;57396;48.742;9.128;2023-08-24T14:22:12;17.73;;;4.53;;
2480;SDS011;57396;48.742;9.128;2023-08-24T14:24:37;15.50;;;3.70;;
2480;SDS011;57396;48.742;9.128;2023-08-24T14:27:03;12.73;;;4.10;;
2480;SDS011;57396;48.742;9.128;2023-08-24T14:29:28;11.47;;;4.40;;
2480;SDS011;57396;48.742;9.128;2023-08-24T14:31:53;12.97;;;4.10;;
2480;SDS011;57396;48.742;9.128;2023-08-24T14:34:19;12.50;;;4.10;;
2480;SDS011;57396;48.742;9.128;2023-08-24T14:36:44;18.00;;;4.20;;
2480;SDS011;57396;48.742;9.128;2023-08-24T14:39:10;10.13;;;3.63;;
2480;SDS011;57396;48.742;9.128;2023-08-24T14:41:35;10.87;;;4.90;;
2480;SDS011;57396;48.742;9.128;2023-08-24T14:44:01;12.90;;;4.23;;
2480;SDS011;57396;48.742;9.128;2023-08-24T14:46:26;20.33;;;4.00;;
2480;SDS011;57396;48.742;9.128;2023-08-24T14:48:52;12.07;;;4.43;;
2480;SDS011;57396;48.742;9.128;2023-08-24T14:51:17;13.60;;;4.03;;
2480;SDS011;57396;48.742;9.128;2023-08-24T14:53:42;12.27;;;4.17;;
2480;SDS011;57396;48.742;9.128;2023-08-24T14:56:08;12.13;;;4.17;;
2480;SDS011;57396;48.742;9.128;2023-08-24T14:58:34;14.80;;;4.40;;
2480;SDS011;57396;48.742;9.128;2023-08-24T15:01:00;17.43;;;4.27;;
2480;SDS011;57396;48.742;9.128;2023-08-24T15:03:25;15.57;;;5.10;;